Time;durP1;ratioP1;P1;durP2;ratioP2;P2;SDS_P1;SDS_P2;PMS_P1;PMS_P2;Temp;Humidity;BMP_temperature;BMP_pressure;BME280_temperature;BME280_humidity;BME280_pressure;Samples;Min_cycle;Max_cycle;Signal;HPM_P1;HPM_P2
2021/09/26 00:01:05;;;;;;;0.10;0.10;;;;;;;19.23;59.86;101798.72;4983614;28;20046;-70
2021/09/26 00:03:30;;;;;;;0.85;0.10;;;;;;;19.30;58.44;101802.53;4962591;28;20086;-69
2021/09/26 00:05:56;;;;;;;0.30;0.15;;;;;;;19.23;59.03;101796.84;4994345;28;20068;-69
2021/09/26 00:08:21;;;;;;;1.13;0.30;;;;;;;19.23;59.10;101809.63;5053608;28;20025;-69
2021/09/26 00:10:46;;;;;;;0.68;0.13;;;;;;;19.26;58.82;101814.75;5035483;28;20072;-69
2021/09/26 00:13:12;;;;;;;0.20;0.10;;;;;;;19.27;59.00;101812.88;5053790;28;20021;-69
2021/09/26 00:15:37;;;;;;;0.40;0.20;;;;;;;19.26;58.64;101806.59;5053318;28;20025;-69
2021/09/26 00:18:03;;;;;;;0.20;0.20;;;;;;;19.23;59.57;101821.38;5053745;28;20032;-69
2021/09/26 00:20:29;;;;;;;0.45;0.13;;;;;;;19.23;58.97;101825.97;5035567;28;20017;-69
2021/09/26 00:22:54;;;;;;;0.75;0.20;;;;;;;19.28;59.53;101818.19;5053762;28;20091;-69
2021/09/26 00:25:20;;;;;;;0.22;0.10;;;;;;;19.21;61.15;101826.13;5055184;28;20013;-69
2021/09/26 00:27:46;;;;;;;0.00;0.00;;;;;;;19.22;58.95;101830.56;5073356;28;20032;-69
2021/09/26 00:30:14;;;;;;;0.30;0.15;;;;;;;19.27;58.18;101821.94;5055638;28;20035;-69
2021/09/26 00:33:13;;;;;;;0.63;0.10;;;;;;;19.28;58.70;101829.09;5087867;28;20013;-69
2021/09/26 00:35:38;;;;;;;0.68;0.20;;;;;;;19.28;58.70;101831.81;5055520;28;20039;-69
2021/09/26 00:38:04;;;;;;;0.40;0.10;;;;;;;19.25;58.91;101834.88;5073061;28;20025;-69
2021/09/26 00:40:30;;;;;;;0.22;0.13;;;;;;;19.20;60.17;101835.31;5073120;28;20024;-69
2021/09/26 00:42:55;;;;;;;0.35;0.20;;;;;;;19.20;61.27;101834.47;5073497;28;20530;-69
2021/09/26 00:45:21;;;;;;;0.50;0.10;;;;;;;19.22;60.21;101841.47;5074645;28;20356;-69
2021/09/26 00:47:47;;;;;;;0.10;0.10;;;;;;;19.25;59.75;101845.75;5073293;28;20110;-69
2021/09/26 00:50:12;;;;;;;0.38;0.20;;;;;;;19.21;59.71;101844.38;5072801;28;20047;-69
2021/09/26 00:52:40;;;;;;;0.70;0.30;;;;;;;19.19;59.29;101852.69;5073246;28;20455;-69
2021/09/26 00:55:07;;;;;;;0.28;0.17;;;;;;;19.16;58.45;101852.16;5073223;28;20021;-69
2021/09/26 00:57:35;;;;;;;0.82;0.32;;;;;;;19.13;59.70;101858.75;5073198;28;20051;-70
2021/09/26 01:00:00;;;;;;;0.15;0.10;;;;;;;19.16;60.33;101868.50;5076834;28;20025;-68
2021/09/26 01:02:56;;;;;;;0.13;0.13;;;;;;;19.20;59.89;101864.47;5098555;28;20019;-69
2021/09/26 01:05:25;;;;;;;0.10;0.10;;;;;;;19.19;58.96;101868.19;5086877;28;20068;-69
2021/09/26 01:08:15;;;;;;;0.20;0.10;;;;;;;19.19;59.06;101868.19;5076138;28;20048;-69
2021/09/26 01:10:56;;;;;;;1.23;0.30;;;;;;;19.17;60.13;101870.22;5072792;28;20045;-69
2021/09/26 01:13:43;;;;;;;0.10;0.10;;;;;;;19.22;58.68;101876.06;5072768;28;20020;-69
2021/09/26 01:16:37;;;;;;;0.20;0.13;;;;;;;19.18;60.05;101882.84;5072878;28;20475;-69
2021/09/26 01:19:02;;;;;;;0.80;0.17;;;;;;;19.17;59.21;101886.56;5072792;28;20082;-69
2021/09/26 01:21:31;;;;;;;0.65;0.30;;;;;;;19.19;59.11;101890.00;5073080;28;20407;-69
2021/09/26 01:24:14;;;;;;;0.45;0.30;;;;;;;19.14;60.57;101897.75;5066292;28;20376;-69
2021/09/26 01:26:46;;;;;;;0.30;0.30;;;;;;;19.18;60.10;101893.75;5052689;28;20124;-69
2021/09/26 01:29:38;;;;;;;0.00;0.00;;;;;;;19.17;59.38;101897.47;5059215;28;20012;-69
2021/09/26 01:32:06;;;;;;;0.88;0.28;;;;;;;19.14;60.50;101903.22;5078265;28;20013;-70
2021/09/26 01:34:49;;;;;;;1.40;0.30;;;;;;;19.14;59.51;101908.66;5061482;28;20123;-69
2021/09/26 01:37:29;;;;;;;0.13;0.10;;;;;;;19.09;60.21;101911.84;5052280;28;20025;-69
2021/09/26 01:40:24;;;;;;;0.13;0.13;;;;;;;19.12;60.47;101918.88;5034971;28;20017;-69
2021/09/26 01:42:53;;;;;;;0.10;0.03;;;;;;;19.14;59.78;101919.56;5034696;28;20499;-69
2021/09/26 01:45:28;;;;;;;0.75;0.10;;;;;;;19.10;60.14;101923.59;5052713;28;20029;-69
2021/09/26 01:47:59;;;;;;;0.63;0.10;;;;;;;19.12;60.30;101927.03;5052365;28;20027;-69
2021/09/26 01:50:25;;;;;;;0.30;0.30;;;;;;;19.17;59.04;101922.00;5036518;28;20068;-68
2021/09/26 01:52:52;;;;;;;0.90;0.20;;;;;;;19.11;60.02;101934.34;5052331;28;20087;-69
2021/09/26 01:55:22;;;;;;;0.20;0.20;;;;;;;19.09;59.44;101949.16;5052486;28;20383;-69
2021/09/26 01:57:48;;;;;;;0.30;0.10;;;;;;;19.13;58.77;101945.13;5052468;28;20427;-69
2021/09/26 02:00:14;;;;;;;0.77;0.20;;;;;;;19.09;60.27;101954.59;5052703;28;20033;-69
2021/09/26 02:02:42;;;;;;;0.28;0.10;;;;;;;19.08;60.70;101950.16;5038499;28;20017;-69
2021/09/26 02:05:09;;;;;;;0.38;0.20;;;;;;;19.11;59.52;101950.72;5056050;28;20025;-69
2021/09/26 02:07:38;;;;;;;0.30;0.13;;;;;;;19.11;59.29;101952.59;5038276;28;20063;-69
2021/09/26 02:10:05;;;;;;;0.63;0.32;;;;;;;19.09;58.88;101954.59;5055776;28;20025;-69
2021/09/26 02:12:31;;;;;;;0.30;0.20;;;;;;;19.09;59.61;101960.91;5055782;28;20460;-70
2021/09/26 02:14:58;;;;;;;0.25;0.10;;;;;;;19.08;59.90;101958.34;5059069;28;20068;-69
2021/09/26 02:17:27;;;;;;;0.70;0.20;;;;;;;19.08;59.24;101961.91;5055572;28;20032;-69
2021/09/26 02:19:58;;;;;;;0.10;0.10;;;;;;;19.09;59.59;101974.53;5055995;28;20075;-69
2021/09/26 02:22:23;;;;;;;0.30;0.20;;;;;;;19.06;59.95;101966.66;5037768;28;20131;-69
2021/09/26 02:24:50;;;;;;;0.43;0.17;;;;;;;19.07;59.45;101978.44;5055878;28;20032;-70
2021/09/26 02:27:16;;;;;;;1.27;0.30;;;;;;;19.04;60.25;101979.59;5054462;28;20145;-69
2021/09/26 02:29:41;;;;;;;0.43;0.17;;;;;;;19.01;60.89;101990.78;5055713;28;20102;-69
2021/09/26 02:32:07;;;;;;;0.90;0.30;;;;;;;19.03;58.96;101987.91;5054501;28;20025;-69
2021/09/26 02:34:41;;;;;;;0.30;0.20;;;;;;;19.03;59.82;101987.91;5056963;28;20025;-68
2021/09/26 02:37:07;;;;;;;;;;;;;;;19.06;60.02;101993.06;5054823;28;20032;-69
2021/09/26 02:39:32;;;;;;;0.10;0.10;;;;;;;19.05;59.03;102002.25;5055377;28;20272;-69
2021/09/26 02:42:11;;;;;;;0.15;0.10;;;;;;;19.09;59.12;102009.13;5055498;28;20103;-69
2021/09/26 02:45:06;;;;;;;0.30;0.10;;;;;;;19.08;59.34;102007.41;5055456;28;20032;-69
2021/09/26 02:47:47;;;;;;;0.45;0.10;;;;;;;19.01;60.19;102022.66;5055282;28;20033;-69
2021/09/26 02:50:13;;;;;;;0.55;0.10;;;;;;;19.05;59.39;102024.06;5054690;28;20033;-69
2021/09/26 02:52:52;;;;;;;0.50;0.17;;;;;;;19.05;60.05;102024.91;5078791;28;20020;-69
2021/09/26 02:55:18;;;;;;;1.08;0.10;;;;;;;19.02;61.21;102035.25;5054950;28;20040;-69
2021/09/26 02:57:44;;;;;;;0.77;0.20;;;;;;;19.01;59.91;102039.00;5055456;28;20033;-69
2021/09/26 03:00:10;;;;;;;0.30;0.10;;;;;;;18.99;59.27;102035.56;5056557;28;20017;-69
2021/09/26 03:02:36;;;;;;;0.50;0.22;;;;;;;18.99;59.88;102043.72;5054894;28;20116;-69
2021/09/26 03:05:03;;;;;;;0.68;0.35;;;;;;;18.96;60.09;102044.84;5055022;28;20020;-69
2021/09/26 03:07:29;;;;;;;0.25;0.20;;;;;;;18.98;59.95;102047.44;5052736;28;20028;-69
2021/09/26 03:09:54;;;;;;;0.75;0.15;;;;;;;19.05;58.89;102045.88;5054960;28;20033;-69
2021/09/26 03:12:21;;;;;;;0.50;0.20;;;;;;;18.99;58.71;102057.38;5054600;28;20045;-70
2021/09/26 03:14:48;;;;;;;0.57;0.30;;;;;;;18.94;60.77;102064.09;5054785;28;20029;-69
2021/09/26 03:17:14;;;;;;;0.17;0.10;;;;;;;18.94;60.96;102055.91;5054750;28;20025;-69
2021/09/26 03:19:41;;;;;;;0.25;0.10;;;;;;;19.00;59.42;102061.81;5054580;28;20036;-69
2021/09/26 03:22:09;;;;;;;0.40;0.10;;;;;;;18.96;60.30;102057.63;5058797;28;20031;-69
2021/09/26 03:24:53;;;;;;;0.40;0.13;;;;;;;18.94;60.25;102055.91;5082802;28;20015;-70
2021/09/26 03:27:18;;;;;;;0.85;0.10;;;;;;;18.94;59.65;102066.81;5076305;28;20050;-69
2021/09/26 03:29:44;;;;;;;0.32;0.22;;;;;;;18.98;59.97;102071.97;5074641;28;20038;-69
2021/09/26 03:32:10;;;;;;;1.35;0.35;;;;;;;18.91;60.19;102064.38;5074161;28;20035;-69
2021/09/26 03:34:35;;;;;;;0.60;0.45;;;;;;;18.93;60.87;102065.09;5074449;28;20063;-69
2021/09/26 03:37:01;;;;;;;0.57;0.20;;;;;;;18.96;60.22;102069.38;5074107;28;20052;-69
2021/09/26 03:39:26;;;;;;;1.02;0.10;;;;;;;18.91;61.27;102067.09;5074396;28;20033;-69
2021/09/26 03:41:52;;;;;;;0.13;0.00;;;;;;;18.93;60.26;102070.53;5074042;28;20061;-69
2021/09/26 03:44:17;;;;;;;0.90;0.25;;;;;;;18.93;59.50;102070.53;5074258;28;20537;-69
2021/09/26 03:46:42;;;;;;;0.38;0.10;;;;;;;18.98;59.27;102072.84;5074979;28;20027;-69
2021/09/26 03:49:08;;;;;;;0.20;0.10;;;;;;;18.95;60.44;102084.03;5073927;28;20463;-69
2021/09/26 03:51:33;;;;;;;2.10;0.57;;;;;;;18.92;59.58;102077.00;5073950;28;20039;-69
2021/09/26 03:53:59;;;;;;;1.33;0.20;;;;;;;18.89;60.58;102074.56;5073756;28;20475;-69
2021/09/26 03:56:24;;;;;;;0.73;0.20;;;;;;;18.93;58.72;102070.53;5074105;28;20024;-69
2021/09/26 03:58:49;;;;;;;1.45;0.10;;;;;;;18.91;59.69;102078.00;5073754;28;20029;-69
2021/09/26 04:01:15;;;;;;;0.10;0.10;;;;;;;18.87;59.82;102076.59;5073925;28;20085;-69
2021/09/26 04:03:40;;;;;;;0.52;0.30;;;;;;;19.03;59.18;102086.03;5074037;28;20025;-69
2021/09/26 04:06:09;;;;;;;1.65;0.20;;;;;;;19.15;59.08;102082.16;5075864;28;20077;-69
2021/09/26 04:08:46;;;;;;;0.82;0.10;;;;;;;19.19;59.42;102091.75;5074043;28;20379;-70
2021/09/26 04:11:11;;;;;;;1.17;0.20;;;;;;;19.22;59.81;102088.72;5073419;28;20521;-71
2021/09/26 04:13:37;;;;;;;0.32;0.10;;;;;;;19.31;59.47;102096.00;5055604;28;20033;-69
2021/09/26 04:16:03;;;;;;;0.20;0.20;;;;;;;19.36;59.34;102088.25;5073529;28;20031;-69
2021/09/26 04:18:28;;;;;;;0.10;0.10;;;;;;;19.39;61.09;102093.41;5073332;28;20028;-70
2021/09/26 04:20:54;;;;;;;0.38;0.25;;;;;;;19.43;60.73;102093.97;5082402;28;20027;-70
2021/09/26 04:23:20;;;;;;;1.45;0.40;;;;;;;19.52;59.55;102099.41;5053284;28;20066;-70
2021/09/26 04:25:45;;;;;;;0.45;0.17;;;;;;;19.58;58.54;102099.84;5053651;28;20025;-69
2021/09/26 04:28:10;;;;;;;0.80;0.40;;;;;;;19.60;58.39;102098.69;5053162;28;20025;-69
2021/09/26 04:30:36;;;;;;;0.10;0.10;;;;;;;19.63;58.70;102100.25;5054553;28;20319;-69
2021/09/26 04:33:03;;;;;;;0.47;0.40;;;;;;;19.63;59.68;102094.78;5053282;28;20031;-69
2021/09/26 04:35:29;;;;;;;0.10;0.10;;;;;;;19.72;59.26;102096.63;5053046;28;20032;-70
2021/09/26 04:37:56;;;;;;;0.40;0.10;;;;;;;19.72;61.44;102099.34;5053135;28;20096;-69
2021/09/26 04:40:21;;;;;;;0.45;0.13;;;;;;;19.75;59.54;102099.91;5053264;28;20036;-69
2021/09/26 04:42:47;;;;;;;1.83;0.22;;;;;;;19.73;60.67;102096.47;5053062;28;20025;-70
2021/09/26 04:45:13;;;;;;;1.02;0.40;;;;;;;19.72;58.94;102093.91;5057666;28;20009;-69
2021/09/26 04:47:39;;;;;;;0.93;0.30;;;;;;;19.76;60.08;102100.75;5070503;28;20494;-69
2021/09/26 04:50:06;;;;;;;0.77;0.30;;;;;;;19.72;62.34;102104.81;5053006;28;20021;-69
2021/09/26 04:52:33;;;;;;;0.30;0.28;;;;;;;19.84;59.77;102109.06;5052930;28;20074;-69
2021/09/26 04:54:58;;;;;;;0.30;0.15;;;;;;;19.88;60.65;102110.50;5054792;28;20448;-69
2021/09/26 04:57:24;;;;;;;0.43;0.20;;;;;;;19.90;60.46;102108.47;5052713;28;20044;-69
2021/09/26 04:59:49;;;;;;;0.63;0.38;;;;;;;19.90;59.93;102103.00;5053230;28;20099;-69
2021/09/26 05:02:14;;;;;;;0.17;0.17;;;;;;;19.89;59.47;102105.88;5052475;28;20075;-69
2021/09/26 05:04:40;;;;;;;0.20;0.20;;;;;;;19.87;60.45;102111.50;5053134;28;20070;-69
2021/09/26 05:07:05;;;;;;;0.88;0.17;;;;;;;19.94;60.15;102109.88;5052705;28;20067;-69
2021/09/26 05:09:30;;;;;;;1.05;0.20;;;;;;;19.99;60.32;102112.16;5052122;28;20535;-69
2021/09/26 05:11:56;;;;;;;0.30;0.10;;;;;;;20.00;59.55;102117.47;5052928;28;20099;-69
2021/09/26 05:14:22;;;;;;;0.47;0.30;;;;;;;20.01;59.27;102116.47;5052957;28;20018;-69
2021/09/26 05:17:16;;;;;;;0.10;0.10;;;;;;;20.01;60.81;102127.38;5064800;28;20052;-71
2021/09/26 05:19:46;;;;;;;0.40;0.10;;;;;;;19.96;60.50;102118.75;5072970;28;20029;-69
2021/09/26 05:22:12;;;;;;;0.90;0.40;;;;;;;19.98;61.58;102127.66;5052413;28;20035;-69
2021/09/26 05:24:37;;;;;;;0.25;0.10;;;;;;;19.99;59.99;102134.88;5065085;28;20024;-69
2021/09/26 05:27:03;;;;;;;0.30;0.22;;;;;;;19.99;60.90;102134.00;5072545;28;20097;-69
2021/09/26 05:29:28;;;;;;;0.47;0.20;;;;;;;19.99;59.86;102137.59;5054906;28;20025;-69
2021/09/26 05:31:54;;;;;;;0.95;0.25;;;;;;;20.08;60.46;102141.28;5072516;28;20020;-69
2021/09/26 05:34:19;;;;;;;0.45;0.28;;;;;;;20.00;60.39;102136.59;5072488;28;20038;-70
2021/09/26 05:36:45;;;;;;;0.52;0.20;;;;;;;20.08;60.70;102142.13;5075281;28;20468;-69
2021/09/26 05:39:10;;;;;;;0.10;0.10;;;;;;;20.07;60.41;102143.13;5076553;28;20052;-69
2021/09/26 05:41:36;;;;;;;0.63;0.25;;;;;;;20.04;62.11;102143.44;5076704;28;20066;-69
2021/09/26 05:44:01;;;;;;;0.55;0.20;;;;;;;20.06;60.23;102146.88;5078228;28;20021;-69
2021/09/26 05:46:27;;;;;;;0.47;0.10;;;;;;;20.11;60.85;102150.00;5076579;28;20455;-69
2021/09/26 05:48:52;;;;;;;0.55;0.20;;;;;;;20.09;61.40;102156.63;5076182;28;20028;-69
2021/09/26 05:51:17;;;;;;;0.43;0.30;;;;;;;20.03;60.90;102158.13;5076413;28;20032;-69
2021/09/26 05:53:43;;;;;;;0.95;0.35;;;;;;;20.08;60.85;102168.56;5089238;28;20019;-69
2021/09/26 05:56:35;;;;;;;0.73;0.25;;;;;;;20.06;61.65;102167.88;5102408;28;20051;-70
2021/09/26 05:59:00;;;;;;;1.05;0.45;;;;;;;20.05;61.23;102172.47;5075985;28;20468;-69
2021/09/26 06:01:26;;;;;;;0.63;0.10;;;;;;;20.02;62.04;102172.78;5076256;28;20074;-69
2021/09/26 06:03:51;;;;;;;0.25;0.13;;;;;;;20.02;61.14;102174.66;5076309;28;20020;-69
2021/09/26 06:06:17;;;;;;;0.40;0.20;;;;;;;20.03;60.77;102174.50;5080083;28;20471;-69
2021/09/26 06:08:42;;;;;;;0.20;0.10;;;;;;;20.04;61.08;102176.22;5075769;28;20099;-70
2021/09/26 06:11:07;;;;;;;0.82;0.20;;;;;;;20.07;61.98;102184.09;5056676;28;20042;-69
2021/09/26 06:13:33;;;;;;;0.95;0.20;;;;;;;20.09;61.02;102200.31;5075889;28;20468;-69
2021/09/26 06:16:02;;;;;;;0.98;0.20;;;;;;;20.07;61.06;102192.28;5076037;28;20066;-69
2021/09/26 06:18:28;;;;;;;0.20;0.20;;;;;;;20.01;62.70;102192.91;5075728;28;20395;-69
2021/09/26 06:20:54;;;;;;;0.20;0.20;;;;;;;20.08;61.61;102193.13;5076098;28;20031;-69
2021/09/26 06:23:19;;;;;;;0.82;0.28;;;;;;;20.10;61.44;102199.31;5074234;28;20655;-69
2021/09/26 06:25:45;;;;;;;0.60;0.10;;;;;;;20.06;61.08;102204.22;5062908;28;20017;-69
2021/09/26 06:28:10;;;;;;;1.55;0.52;;;;;;;20.04;61.62;102211.69;5056059;28;20025;-69
2021/09/26 06:30:36;;;;;;;0.32;0.28;;;;;;;20.01;62.46;102211.16;5058047;28;20024;-69
2021/09/26 06:33:03;;;;;;;0.65;0.30;;;;;;;20.06;61.05;102200.63;5055547;28;20079;-69
2021/09/26 06:35:29;;;;;;;1.42;0.50;;;;;;;20.03;62.20;102204.53;5037303;28;20020;-69
2021/09/26 06:37:54;;;;;;;1.02;0.30;;;;;;;20.09;62.19;102216.69;5055591;28;20062;-69
2021/09/26 06:40:20;;;;;;;0.40;0.17;;;;;;;20.00;63.28;102215.75;5055131;28;20028;-69
2021/09/26 06:42:46;;;;;;;0.55;0.15;;;;;;;20.03;62.77;102199.06;5055639;28;20029;-69
2021/09/26 06:45:12;;;;;;;0.80;0.30;;;;;;;20.01;64.01;102205.69;5055191;28;20051;-69
2021/09/26 06:47:38;;;;;;;0.10;0.10;;;;;;;20.04;61.40;102200.78;5056467;28;20471;-69
2021/09/26 06:50:05;;;;;;;0.65;0.20;;;;;;;20.07;62.88;102197.75;5055108;28;20067;-69
2021/09/26 06:52:30;;;;;;;0.40;0.20;;;;;;;20.12;60.53;102200.88;5054934;28;20060;-69
2021/09/26 06:54:56;;;;;;;1.52;0.28;;;;;;;20.13;63.00;102207.19;5055314;28;20044;-69
2021/09/26 06:57:21;;;;;;;0.40;0.30;;;;;;;20.10;61.39;102213.81;5054914;28;20373;-69
2021/09/26 06:59:47;;;;;;;0.85;0.20;;;;;;;20.06;63.15;102217.88;5055345;28;20064;-69
2021/09/26 07:02:13;;;;;;;0.20;0.20;;;;;;;20.04;62.74;102210.84;5054732;28;20028;-69
2021/09/26 07:04:38;;;;;;;0.32;0.20;;;;;;;20.05;63.58;102213.41;5055248;28;20021;-69
2021/09/26 07:07:04;;;;;;;2.35;0.65;;;;;;;20.08;62.73;102210.38;5060471;28;20075;-69
2021/09/26 07:09:29;;;;;;;0.25;0.15;;;;;;;20.12;64.35;102228.19;5055074;28;20032;-69
2021/09/26 07:11:54;;;;;;;0.30;0.20;;;;;;;20.08;62.15;102226.75;5054594;28;20076;-69
2021/09/26 07:14:20;;;;;;;0.30;0.10;;;;;;;20.10;61.76;102227.47;5053732;28;20040;-69
2021/09/26 07:16:45;;;;;;;0.63;0.20;;;;;;;20.04;63.02;102224.50;5054902;28;20049;-69
2021/09/26 07:19:12;;;;;;;0.40;0.30;;;;;;;20.09;62.59;102233.09;5054758;28;20522;-69
2021/09/26 07:21:38;;;;;;;0.75;0.35;;;;;;;20.12;62.94;102239.09;5054523;28;20028;-69
2021/09/26 07:24:04;;;;;;;0.52;0.20;;;;;;;20.13;61.68;102240.81;5054715;28;20025;-69
2021/09/26 07:26:30;;;;;;;0.32;0.10;;;;;;;20.11;62.38;102247.44;5054293;28;20510;-69
2021/09/26 07:28:55;;;;;;;0.50;0.20;;;;;;;20.05;63.20;102248.06;5057224;28;20056;-69
2021/09/26 07:31:21;;;;;;;0.68;0.20;;;;;;;20.10;62.57;102234.81;5065944;28;20020;-69
2021/09/26 07:33:54;;;;;;;0.30;0.20;;;;;;;20.09;64.30;102231.22;5098481;28;20009;-69
2021/09/26 07:36:19;;;;;;;0.20;0.10;;;;;;;20.11;62.76;102240.13;5058183;28;20370;-69
2021/09/26 07:38:45;;;;;;;0.25;0.10;;;;;;;20.08;63.19;102239.56;5074569;28;20261;-69
2021/09/26 07:41:10;;;;;;;1.02;0.20;;;;;;;20.11;62.92;102255.63;5074028;28;20020;-69
2021/09/26 07:43:37;;;;;;;0.70;0.13;;;;;;;20.13;62.95;102254.47;5056581;28;20016;-69
2021/09/26 07:46:02;;;;;;;2.35;0.30;;;;;;;20.16;62.63;102249.75;5056083;28;20070;-69
2021/09/26 07:48:27;;;;;;;0.22;0.10;;;;;;;20.12;63.48;102255.47;5074387;28;20025;-69
2021/09/26 07:50:53;;;;;;;0.30;0.20;;;;;;;20.19;61.65;102260.38;5075974;28;20024;-68
2021/09/26 07:53:19;;;;;;;0.30;0.10;;;;;;;20.18;62.11;102269.56;5076570;28;20107;-69
2021/09/26 07:55:45;;;;;;;0.63;0.20;;;;;;;20.21;62.34;102269.25;5074215;28;20020;-69
2021/09/26 07:58:11;;;;;;;0.60;0.25;;;;;;;20.18;63.98;102272.31;5072904;28;20020;-69
2021/09/26 08:00:36;;;;;;;0.35;0.20;;;;;;;20.14;64.01;102263.53;5074022;28;20119;-69
2021/09/26 08:03:01;;;;;;;0.38;0.20;;;;;;;20.15;62.67;102265.25;5073414;28;20052;-69
2021/09/26 08:05:27;;;;;;;0.35;0.20;;;;;;;20.18;62.89;102269.56;5075653;28;20021;-69
2021/09/26 08:08:00;;;;;;;1.10;0.10;;;;;;;20.17;63.29;102279.63;5082844;28;20032;-69
2021/09/26 08:10:25;;;;;;;0.73;0.20;;;;;;;20.11;62.88;102281.06;5075719;28;20393;-68
2021/09/26 08:12:51;;;;;;;0.22;0.10;;;;;;;20.09;63.00;102277.63;5073248;28;20566;-69
2021/09/26 08:15:17;;;;;;;0.40;0.20;;;;;;;20.12;62.66;102288.25;5073504;28;20020;-69
2021/09/26 08:17:43;;;;;;;0.60;0.17;;;;;;;20.12;62.14;102281.94;5074595;28;20489;-69
2021/09/26 08:20:09;;;;;;;1.35;0.15;;;;;;;20.09;63.11;102283.09;5055674;28;20024;-69
2021/09/26 08:22:34;;;;;;;0.17;0.08;;;;;;;20.10;63.74;102295.72;5073363;28;20020;-69
2021/09/26 08:25:00;;;;;;;0.20;0.20;;;;;;;20.16;63.38;102287.97;5073540;28;20104;-69
2021/09/26 08:27:26;;;;;;;0.25;0.10;;;;;;;20.11;62.47;102292.00;5073163;28;20020;-70
2021/09/26 08:29:52;;;;;;;0.35;0.10;;;;;;;20.17;61.70;102293.28;5073599;28;20048;-69
2021/09/26 08:32:17;;;;;;;1.05;0.20;;;;;;;20.13;63.36;102292.69;5073052;28;20758;-69
2021/09/26 08:34:42;;;;;;;0.90;0.20;;;;;;;20.14;62.95;102297.16;5073514;28;20017;-69
2021/09/26 08:37:08;;;;;;;0.57;0.10;;;;;;;20.14;64.31;102294.41;5081649;28;20015;-68
2021/09/26 08:39:33;;;;;;;0.30;0.10;;;;;;;20.18;61.99;102285.94;5073483;28;20462;-69
2021/09/26 08:41:59;;;;;;;0.85;0.10;;;;;;;20.17;61.19;102295.16;5073397;28;20028;-69
2021/09/26 08:44:27;;;;;;;0.85;0.10;;;;;;;20.17;62.56;102289.69;5073121;28;20455;-69
2021/09/26 08:46:55;;;;;;;0.08;0.08;;;;;;;20.11;62.61;102296.59;5073520;28;20471;-69
2021/09/26 08:49:21;;;;;;;0.20;0.10;;;;;;;20.17;62.58;102300.63;5072961;28;20069;-69
2021/09/26 08:51:52;;;;;;;0.20;0.20;;;;;;;20.16;63.80;102298.91;5073317;28;20101;-69
2021/09/26 08:54:18;;;;;;;0.65;0.10;;;;;;;20.22;62.22;102296.41;5072775;28;20462;-69
2021/09/26 08:56:44;;;;;;;0.88;0.25;;;;;;;20.22;61.54;102298.28;5074118;28;20028;-69
2021/09/26 08:59:11;;;;;;;0.80;0.10;;;;;;;20.18;63.54;102307.78;5072795;28;20031;-69
2021/09/26 09:01:37;;;;;;;0.35;0.20;;;;;;;20.18;63.21;102307.78;5073247;28;20028;-69
2021/09/26 09:04:03;;;;;;;0.45;0.20;;;;;;;20.19;62.76;102304.91;5073015;28;20467;-69
2021/09/26 09:06:46;;;;;;;0.38;0.13;;;;;;;20.14;62.91;102305.34;5072878;28;20056;-69
2021/09/26 09:09:56;;;;;;;0.22;0.00;;;;;;;20.22;62.40;102309.22;5099154;28;20005;-69
2021/09/26 09:12:25;;;;;;;0.43;0.10;;;;;;;20.19;62.09;102304.06;5077042;28;20090;-69
2021/09/26 09:14:54;;;;;;;0.57;0.15;;;;;;;20.23;61.56;102310.94;5077067;28;20047;-69
2021/09/26 09:17:32;;;;;;;0.70;0.10;;;;;;;20.20;62.66;102311.25;5078464;28;20032;-69
2021/09/26 09:20:24;;;;;;;1.00;0.30;;;;;;;20.18;64.03;102313.25;5077179;28;20077;-69
2021/09/26 09:23:04;;;;;;;0.50;0.20;;;;;;;20.18;63.11;102324.19;5077170;28;20040;-69
2021/09/26 09:25:44;;;;;;;0.75;0.08;;;;;;;20.16;65.52;102320.75;5057326;28;20021;-69
2021/09/26 09:28:12;;;;;;;0.30;0.05;;;;;;;20.14;63.07;102321.72;5056840;28;20033;-69
2021/09/26 09:30:39;;;;;;;0.40;0.22;;;;;;;20.12;63.88;102321.00;5056432;28;20108;-69
2021/09/26 09:33:05;;;;;;;0.15;0.15;;;;;;;20.13;63.53;102320.00;5056952;28;20375;-69
2021/09/26 09:35:48;;;;;;;0.82;0.32;;;;;;;20.15;63.62;102319.84;5056406;28;20027;-69
2021/09/26 09:38:32;;;;;;;0.65;0.17;;;;;;;20.19;63.52;102309.53;5069131;28;20032;-69
2021/09/26 09:40:59;;;;;;;0.60;0.10;;;;;;;20.27;62.17;102317.81;5074272;28;20040;-69
2021/09/26 09:43:27;;;;;;;0.82;0.20;;;;;;;20.20;64.18;102316.69;5056591;28;20033;-69
2021/09/26 09:46:01;;;;;;;0.55;0.20;;;;;;;20.18;63.64;102324.19;5056362;28;20075;-69
2021/09/26 09:48:29;;;;;;;;;;;;;;;20.22;62.93;102325.59;5057035;28;20353;-69
2021/09/26 09:50:57;;;;;;;0.22;0.10;;;;;;;20.23;63.27;102324.59;5056608;28;19913;-69
2021/09/26 09:53:25;;;;;;;0.90;0.20;;;;;;;20.26;61.55;102325.16;5056317;28;20408;-69
2021/09/26 09:55:58;;;;;;;1.08;0.10;;;;;;;20.25;64.26;102325.28;5056486;28;20029;-69
2021/09/26 09:58:24;;;;;;;0.22;0.10;;;;;;;20.24;62.64;102329.91;5059485;28;20393;-69
2021/09/26 10:00:55;;;;;;;0.10;0.10;;;;;;;20.27;62.25;102324.13;5038681;28;20028;-69
2021/09/26 10:03:36;;;;;;;0.63;0.20;;;;;;;20.27;62.15;102328.75;5055908;28;20039;-69
2021/09/26 10:06:03;;;;;;;1.23;0.20;;;;;;;20.27;63.06;102328.75;5065649;28;20052;-69
2021/09/26 10:11:06;;;;;;;0.30;0.10;;;;;;;20.18;62.25;102318.72;5038206;28;20420;-69
2021/09/26 10:13:32;;;;;;;0.85;0.15;;;;;;;20.16;63.45;102321.59;5036246;28;20126;-69
2021/09/26 10:15:58;;;;;;;0.22;0.00;;;;;;;20.16;62.62;102315.28;5018260;28;20156;-69
2021/09/26 10:18:23;;;;;;;0.95;0.10;;;;;;;20.26;63.22;102316.94;5017682;28;20076;-69
2021/09/26 10:20:49;;;;;;;0.10;0.10;;;;;;;20.28;63.27;102325.00;5041376;28;20029;-68
2021/09/26 10:23:14;;;;;;;0.30;0.10;;;;;;;20.22;62.35;102325.59;5035407;28;20542;-69
2021/09/26 10:25:40;;;;;;;0.63;0.10;;;;;;;20.28;62.81;102330.47;5034559;28;20030;-69
2021/09/26 10:28:07;;;;;;;0.47;0.20;;;;;;;20.31;62.17;102336.47;5035765;28;20488;-69
2021/09/26 10:30:32;;;;;;;0.57;0.00;;;;;;;20.22;63.81;102323.72;5035543;28;20390;-69
2021/09/26 10:32:59;;;;;;;0.65;0.20;;;;;;;20.22;62.74;102322.88;5035851;28;20492;-69
2021/09/26 10:35:26;;;;;;;0.20;0.15;;;;;;;20.18;63.96;102326.91;5035208;28;20499;-69
2021/09/26 10:37:53;;;;;;;0.65;0.10;;;;;;;20.24;63.39;102329.03;5017273;28;20490;-69
2021/09/26 10:40:19;;;;;;;0.30;0.10;;;;;;;20.20;63.98;102323.03;5035550;28;20518;-69
2021/09/26 10:42:45;;;;;;;0.25;0.20;;;;;;;20.23;63.36;102321.84;5036385;28;20052;-69
2021/09/26 10:45:23;;;;;;;0.60;0.08;;;;;;;20.24;64.28;102329.03;5035462;28;20021;-69
2021/09/26 10:47:55;;;;;;;0.30;0.10;;;;;;;20.19;62.74;102331.38;5017679;28;20026;-69
2021/09/26 10:50:26;;;;;;;0.32;0.10;;;;;;;20.19;64.27;102325.91;5035399;28;20021;-69
2021/09/26 10:52:52;;;;;;;0.75;0.10;;;;;;;20.20;63.25;102327.63;5035166;28;20125;-69
2021/09/26 10:55:27;;;;;;;0.80;0.10;;;;;;;20.25;63.27;102330.75;5035261;28;20017;-70
2021/09/26 10:58:01;;;;;;;;;;;;;;;20.29;62.57;102332.19;5035546;28;20022;-69
2021/09/26 11:00:58;;;;;;;0.20;0.10;;;;;;;20.30;62.87;102332.03;5035280;28;20007;-69
2021/09/26 11:03:39;;;;;;;0.82;0.20;;;;;;;20.28;62.89;102335.91;5034800;28;20104;-69
2021/09/26 11:06:25;;;;;;;0.20;0.10;;;;;;;20.25;63.77;102328.88;5038982;28;20065;-69
2021/09/26 11:09:09;;;;;;;0.80;0.10;;;;;;;20.22;64.29;102337.38;5020148;28;20033;-69
2021/09/26 11:11:45;;;;;;;0.17;0.03;;;;;;;20.23;62.81;102327.31;5035177;28;20112;-69
2021/09/26 11:14:11;;;;;;;0.20;0.10;;;;;;;20.26;62.81;102325.16;5034566;28;20119;-69
2021/09/26 11:16:51;;;;;;;0.50;0.10;;;;;;;20.31;63.17;102321.97;5017398;28;20106;-69
2021/09/26 11:19:18;;;;;;;0.17;0.10;;;;;;;20.30;62.89;102322.97;5034719;28;20079;-69
2021/09/26 11:21:43;;;;;;;0.38;0.10;;;;;;;20.23;63.76;102324.59;5034991;28;20096;-69
2021/09/26 11:24:18;;;;;;;0.30;0.10;;;;;;;20.24;63.39;102334.50;5034675;28;20025;-69
2021/09/26 11:27:02;;;;;;;0.40;0.13;;;;;;;20.26;63.03;102332.47;5034590;28;20013;-69
2021/09/26 11:29:30;;;;;;;0.35;0.15;;;;;;;20.27;63.34;102326.00;5037202;28;20029;-69
2021/09/26 11:31:56;;;;;;;0.10;0.10;;;;;;;20.27;64.34;102328.75;5034281;28;20025;-69
2021/09/26 11:34:42;;;;;;;0.20;0.13;;;;;;;20.26;62.92;102324.28;5044330;28;20028;-69
2021/09/26 11:37:09;;;;;;;0.00;0.00;;;;;;;20.27;63.95;102328.75;5015913;28;20053;-69